sensor_id;sensor_type;location;lat;lon;timestamp;P1;durP1;ratioP1;P2;durP2;ratioP2
12232;SDS011;6179;51.748;8.728;2022-08-03T00:05:58;2.30;;;2.10;;
12232;SDS011;6179;51.748;8.728;2022-08-03T00:11:59;1.90;;;1.80;;
12232;SDS011;6179;51.748;8.728;2022-08-03T00:18:00;5.47;;;2.57;;
12232;SDS011;6179;51.748;8.728;2022-08-03T00:24:01;2.23;;;2.03;;
12232;SDS011;6179;51.748;8.728;2022-08-03T00:30:02;2.33;;;2.23;;
12232;SDS011;6179;51.748;8.728;2022-08-03T00:36:03;6.10;;;3.30;;
12232;SDS011;6179;51.748;8.728;2022-08-03T00:42:04;3.00;;;2.60;;
12232;SDS011;6179;51.748;8.728;2022-08-03T00:48:05;2.43;;;2.23;;
12232;SDS011;6179;51.748;8.728;2022-08-03T00:54:07;5.23;;;2.83;;
12232;SDS011;6179;51.748;8.728;2022-08-03T01:00:09;1.73;;;1.60;;
12232;SDS011;6179;51.748;8.728;2022-08-03T01:25:37;3.07;;;2.00;;
12232;SDS011;6179;51.748;8.728;2022-08-03T01:31:41;2.80;;;2.10;;
12232;SDS011;6179;51.748;8.728;2022-08-03T01:37:57;1.70;;;1.60;;
12232;SDS011;6179;51.748;8.728;2022-08-03T01:44:02;5.00;;;2.23;;
12232;SDS011;6179;51.748;8.728;2022-08-03T01:50:06;4.50;;;2.10;;
12232;SDS011;6179;51.748;8.728;2022-08-03T01:56:08;2.47;;;2.27;;
12232;SDS011;6179;51.748;8.728;2022-08-03T02:02:11;4.47;;;2.70;;
12232;SDS011;6179;51.748;8.728;2022-08-03T02:08:13;2.23;;;2.03;;
12232;SDS011;6179;51.748;8.728;2022-08-03T02:14:16;2.03;;;1.77;;
12232;SDS011;6179;51.748;8.728;2022-08-03T02:20:19;2.63;;;2.37;;
12232;SDS011;6179;51.748;8.728;2022-08-03T02:26:20;3.53;;;2.53;;
12232;SDS011;6179;51.748;8.728;2022-08-03T02:32:24;2.27;;;2.07;;
12232;SDS011;6179;51.748;8.728;2022-08-03T02:38:31;3.47;;;1.70;;
12232;SDS011;6179;51.748;8.728;2022-08-03T02:44:33;2.73;;;2.40;;
12232;SDS011;6179;51.748;8.728;2022-08-03T02:50:36;3.20;;;2.40;;
12232;SDS011;6179;51.748;8.728;2022-08-03T02:56:38;3.30;;;2.23;;
12232;SDS011;6179;51.748;8.728;2022-08-03T03:02:40;2.40;;;1.97;;
12232;SDS011;6179;51.748;8.728;2022-08-03T03:08:41;3.17;;;2.10;;
12232;SDS011;6179;51.748;8.728;2022-08-03T03:14:42;8.40;;;2.20;;
12232;SDS011;6179;51.748;8.728;2022-08-03T03:20:43;1.90;;;1.70;;
12232;SDS011;6179;51.748;8.728;2022-08-03T03:26:45;2.67;;;1.90;;
12232;SDS011;6179;51.748;8.728;2022-08-03T03:32:47;4.50;;;2.73;;
12232;SDS011;6179;51.748;8.728;2022-08-03T03:38:48;1.87;;;1.77;;
12232;SDS011;6179;51.748;8.728;2022-08-03T03:44:48;2.40;;;2.17;;
12232;SDS011;6179;51.748;8.728;2022-08-03T03:50:49;2.30;;;2.10;;
12232;SDS011;6179;51.748;8.728;2022-08-03T03:56:50;2.43;;;1.77;;
12232;SDS011;6179;51.748;8.728;2022-08-03T04:02:51;2.43;;;2.23;;
12232;SDS011;6179;51.748;8.728;2022-08-03T04:08:51;2.30;;;1.80;;
12232;SDS011;6179;51.748;8.728;2022-08-03T04:15:18;3.10;;;2.70;;
12232;SDS011;6179;51.748;8.728;2022-08-03T04:21:21;5.23;;;1.97;;
12232;SDS011;6179;51.748;8.728;2022-08-03T04:27:24;3.30;;;1.80;;
12232;SDS011;6179;51.748;8.728;2022-08-03T04:33:28;2.83;;;1.80;;
12232;SDS011;6179;51.748;8.728;2022-08-03T04:39:32;2.60;;;1.93;;
12232;SDS011;6179;51.748;8.728;2022-08-03T04:45:35;4.03;;;2.67;;
12232;SDS011;6179;51.748;8.728;2022-08-03T04:51:36;1.60;;;1.50;;
12232;SDS011;6179;51.748;8.728;2022-08-03T04:57:39;2.20;;;2.00;;
12232;SDS011;6179;51.748;8.728;2022-08-03T05:03:40;2.10;;;1.77;;
12232;SDS011;6179;51.748;8.728;2022-08-03T05:09:40;6.70;;;2.10;;
12232;SDS011;6179;51.748;8.728;2022-08-03T05:15:41;2.27;;;2.17;;
12232;SDS011;6179;51.748;8.728;2022-08-03T05:21:42;2.23;;;1.87;;
12232;SDS011;6179;51.748;8.728;2022-08-03T05:27:42;8.40;;;2.40;;
12232;SDS011;6179;51.748;8.728;2022-08-03T05:33:43;2.37;;;1.80;;
12232;SDS011;6179;51.748;8.728;2022-08-03T05:39:44;4.47;;;1.20;;
12232;SDS011;6179;51.748;8.728;2022-08-03T05:45:44;1.47;;;1.33;;
12232;SDS011;6179;51.748;8.728;2022-08-03T05:51:45;1.30;;;1.20;;
12232;SDS011;6179;51.748;8.728;2022-08-03T05:57:46;2.53;;;1.10;;
12232;SDS011;6179;51.748;8.728;2022-08-03T06:03:47;2.07;;;1.57;;
12232;SDS011;6179;51.748;8.728;2022-08-03T06:09:49;1.10;;;0.73;;
12232;SDS011;6179;51.748;8.728;2022-08-03T06:15:49;1.90;;;1.00;;
12232;SDS011;6179;51.748;8.728;2022-08-03T06:21:50;3.00;;;1.30;;
12232;SDS011;6179;51.748;8.728;2022-08-03T06:27:51;4.40;;;1.50;;
12232;SDS011;6179;51.748;8.728;2022-08-03T06:33:51;1.60;;;1.30;;
12232;SDS011;6179;51.748;8.728;2022-08-03T06:39:52;2.97;;;1.00;;
12232;SDS011;6179;51.748;8.728;2022-08-03T06:45:53;1.43;;;1.10;;
12232;SDS011;6179;51.748;8.728;2022-08-03T06:51:54;0.90;;;0.80;;
12232;SDS011;6179;51.748;8.728;2022-08-03T06:57:55;2.00;;;1.90;;
12232;SDS011;6179;51.748;8.728;2022-08-03T07:03:56;1.27;;;1.17;;
12232;SDS011;6179;51.748;8.728;2022-08-03T07:09:57;0.73;;;0.70;;
12232;SDS011;6179;51.748;8.728;2022-08-03T07:15:57;6.10;;;0.80;;
12232;SDS011;6179;51.748;8.728;2022-08-03T07:21:58;6.23;;;0.60;;
12232;SDS011;6179;51.748;8.728;2022-08-03T07:27:59;0.70;;;0.60;;
12232;SDS011;6179;51.748;8.728;2022-08-03T07:33:59;3.43;;;0.63;;
12232;SDS011;6179;51.748;8.728;2022-08-03T07:40:01;12.83;;;0.97;;
12232;SDS011;6179;51.748;8.728;2022-08-03T07:46:03;1.37;;;0.70;;
12232;SDS011;6179;51.748;8.728;2022-08-03T07:52:03;1.23;;;0.63;;
12232;SDS011;6179;51.748;8.728;2022-08-03T07:58:23;1.97;;;0.80;;
12232;SDS011;6179;51.748;8.728;2022-08-03T08:04:23;1.53;;;0.50;;
12232;SDS011;6179;51.748;8.728;2022-08-03T08:10:24;4.73;;;0.50;;
12232;SDS011;6179;51.748;8.728;2022-08-03T08:16:25;0.60;;;0.57;;
12232;SDS011;6179;51.748;8.728;2022-08-03T08:22:26;0.70;;;0.60;;
12232;SDS011;6179;51.748;8.728;2022-08-03T08:28:27;0.80;;;0.80;;
12232;SDS011;6179;51.748;8.728;2022-08-03T08:34:28;1.17;;;0.87;;
12232;SDS011;6179;51.748;8.728;2022-08-03T08:40:29;1.23;;;0.80;;
12232;SDS011;6179;51.748;8.728;2022-08-03T08:46:31;1.13;;;0.70;;
12232;SDS011;6179;51.748;8.728;2022-08-03T08:52:32;0.60;;;0.53;;
12232;SDS011;6179;51.748;8.728;2022-08-03T08:58:35;0.70;;;0.70;;
12232;SDS011;6179;51.748;8.728;2022-08-03T09:04:37;4.30;;;0.70;;
12232;SDS011;6179;51.748;8.728;2022-08-03T09:10:38;1.90;;;0.70;;
12232;SDS011;6179;51.748;8.728;2022-08-03T09:16:54;1.07;;;0.60;;
12232;SDS011;6179;51.748;8.728;2022-08-03T09:23:04;3.60;;;0.60;;
12232;SDS011;6179;51.748;8.728;2022-08-03T09:29:10;1.33;;;0.70;;
12232;SDS011;6179;51.748;8.728;2022-08-03T09:35:14;4.60;;;0.90;;
12232;SDS011;6179;51.748;8.728;2022-08-03T09:41:17;2.60;;;0.90;;
12232;SDS011;6179;51.748;8.728;2022-08-03T09:47:28;1.13;;;0.70;;
12232;SDS011;6179;51.748;8.728;2022-08-03T09:53:31;3.33;;;0.80;;
12232;SDS011;6179;51.748;8.728;2022-08-03T09:59:44;2.10;;;0.67;;
12232;SDS011;6179;51.748;8.728;2022-08-03T10:05:45;0.63;;;0.63;;
12232;SDS011;6179;51.748;8.728;2022-08-03T10:11:46;0.90;;;0.60;;
12232;SDS011;6179;51.748;8.728;2022-08-03T10:17:47;1.20;;;0.80;;
12232;SDS011;6179;51.748;8.728;2022-08-03T10:23:48;0.80;;;0.80;;
12232;SDS011;6179;51.748;8.728;2022-08-03T10:29:51;0.80;;;0.80;;
12232;SDS011;6179;51.748;8.728;2022-08-03T10:35:55;1.17;;;0.80;;
12232;SDS011;6179;51.748;8.728;2022-08-03T10:41:57;0.70;;;0.70;;
12232;SDS011;6179;51.748;8.728;2022-08-03T10:47:58;1.20;;;0.70;;
12232;SDS011;6179;51.748;8.728;2022-08-03T10:54:00;0.60;;;0.60;;
12232;SDS011;6179;51.748;8.728;2022-08-03T11:00:01;4.33;;;0.90;;
12232;SDS011;6179;51.748;8.728;2022-08-03T11:19:58;0.67;;;0.67;;
12232;SDS011;6179;51.748;8.728;2022-08-03T11:38:53;0.90;;;0.60;;
12232;SDS011;6179;51.748;8.728;2022-08-03T11:45:13;3.00;;;0.70;;
12232;SDS011;6179;51.748;8.728;2022-08-03T11:51:19;1.23;;;0.80;;
12232;SDS011;6179;51.748;8.728;2022-08-03T11:57:30;2.23;;;0.93;;
12232;SDS011;6179;51.748;8.728;2022-08-03T12:03:32;0.70;;;0.70;;
12232;SDS011;6179;51.748;8.728;2022-08-03T12:09:33;0.70;;;0.70;;
12232;SDS011;6179;51.748;8.728;2022-08-03T12:15:35;0.60;;;0.53;;
12232;SDS011;6179;51.748;8.728;2022-08-03T12:21:49;2.07;;;0.70;;
12232;SDS011;6179;51.748;8.728;2022-08-03T12:27:50;5.17;;;0.90;;
12232;SDS011;6179;51.748;8.728;2022-08-03T12:34:03;2.17;;;0.80;;
12232;SDS011;6179;51.748;8.728;2022-08-03T12:40:05;1.03;;;0.70;;
12232;SDS011;6179;51.748;8.728;2022-08-03T12:46:10;0.70;;;0.70;;
12232;SDS011;6179;51.748;8.728;2022-08-03T12:52:16;0.67;;;0.60;;
12232;SDS011;6179;51.748;8.728;2022-08-03T12:58:32;1.07;;;0.90;;
12232;SDS011;6179;51.748;8.728;2022-08-03T13:04:36;1.63;;;1.30;;
12232;SDS011;6179;51.748;8.728;2022-08-03T13:10:36;0.80;;;0.80;;
12232;SDS011;6179;51.748;8.728;2022-08-03T13:16:37;0.70;;;0.70;;
12232;SDS011;6179;51.748;8.728;2022-08-03T13:22:38;0.80;;;0.70;;
12232;SDS011;6179;51.748;8.728;2022-08-03T13:28:38;2.70;;;0.70;;
12232;SDS011;6179;51.748;8.728;2022-08-03T13:34:39;3.87;;;1.07;;
12232;SDS011;6179;51.748;8.728;2022-08-03T13:40:40;0.70;;;0.70;;
12232;SDS011;6179;51.748;8.728;2022-08-03T13:46:41;0.60;;;0.60;;
12232;SDS011;6179;51.748;8.728;2022-08-03T13:52:41;3.37;;;0.80;;
12232;SDS011;6179;51.748;8.728;2022-08-03T13:58:42;2.73;;;0.97;;
12232;SDS011;6179;51.748;8.728;2022-08-03T14:04:43;1.00;;;1.00;;
12232;SDS011;6179;51.748;8.728;2022-08-03T14:10:43;1.03;;;0.60;;
12232;SDS011;6179;51.748;8.728;2022-08-03T14:16:44;1.20;;;0.60;;
12232;SDS011;6179;51.748;8.728;2022-08-03T14:22:45;5.07;;;0.70;;
12232;SDS011;6179;51.748;8.728;2022-08-03T14:28:46;0.67;;;0.67;;
12232;SDS011;6179;51.748;8.728;2022-08-03T14:34:46;0.77;;;0.77;;
12232;SDS011;6179;51.748;8.728;2022-08-03T14:40:47;0.63;;;0.63;;
12232;SDS011;6179;51.748;8.728;2022-08-03T14:46:49;0.60;;;0.60;;
12232;SDS011;6179;51.748;8.728;2022-08-03T14:52:49;2.50;;;0.80;;
12232;SDS011;6179;51.748;8.728;2022-08-03T14:58:50;4.00;;;0.60;;
12232;SDS011;6179;51.748;8.728;2022-08-03T15:04:51;1.43;;;1.00;;
12232;SDS011;6179;51.748;8.728;2022-08-03T15:10:52;2.40;;;0.60;;
12232;SDS011;6179;51.748;8.728;2022-08-03T15:16:53;7.50;;;0.80;;
12232;SDS011;6179;51.748;8.728;2022-08-03T15:22:54;2.10;;;0.70;;
12232;SDS011;6179;51.748;8.728;2022-08-03T15:28:54;1.90;;;0.60;;
12232;SDS011;6179;51.748;8.728;2022-08-03T15:34:55;1.00;;;0.90;;
12232;SDS011;6179;51.748;8.728;2022-08-03T15:40:56;2.27;;;0.50;;
12232;SDS011;6179;51.748;8.728;2022-08-03T15:46:57;0.80;;;0.60;;
12232;SDS011;6179;51.748;8.728;2022-08-03T15:52:58;1.30;;;0.80;;
12232;SDS011;6179;51.748;8.728;2022-08-03T15:58:59;0.60;;;0.60;;
12232;SDS011;6179;51.748;8.728;2022-08-03T16:04:59;1.90;;;0.93;;
12232;SDS011;6179;51.748;8.728;2022-08-03T16:11:00;1.63;;;1.07;;
12232;SDS011;6179;51.748;8.728;2022-08-03T16:17:02;0.97;;;0.57;;
12232;SDS011;6179;51.748;8.728;2022-08-03T16:23:03;0.80;;;0.80;;
12232;SDS011;6179;51.748;8.728;2022-08-03T16:29:04;1.90;;;0.60;;
12232;SDS011;6179;51.748;8.728;2022-08-03T16:35:05;0.50;;;0.50;;
12232;SDS011;6179;51.748;8.728;2022-08-03T16:41:06;1.30;;;0.63;;
12232;SDS011;6179;51.748;8.728;2022-08-03T16:47:07;0.57;;;0.57;;
12232;SDS011;6179;51.748;8.728;2022-08-03T16:53:08;0.63;;;0.60;;
12232;SDS011;6179;51.748;8.728;2022-08-03T16:59:09;0.60;;;0.50;;
12232;SDS011;6179;51.748;8.728;2022-08-03T17:05:10;3.90;;;0.50;;
12232;SDS011;6179;51.748;8.728;2022-08-03T17:11:11;0.60;;;0.60;;
12232;SDS011;6179;51.748;8.728;2022-08-03T17:17:13;2.37;;;0.50;;
12232;SDS011;6179;51.748;8.728;2022-08-03T17:23:19;0.80;;;0.67;;
12232;SDS011;6179;51.748;8.728;2022-08-03T17:29:26;1.47;;;0.60;;
12232;SDS011;6179;51.748;8.728;2022-08-03T17:35:27;3.80;;;0.77;;
12232;SDS011;6179;51.748;8.728;2022-08-03T17:41:30;1.07;;;0.70;;
12232;SDS011;6179;51.748;8.728;2022-08-03T17:47:36;2.53;;;0.77;;
12232;SDS011;6179;51.748;8.728;2022-08-03T17:53:39;0.73;;;0.50;;
12232;SDS011;6179;51.748;8.728;2022-08-03T18:06:03;0.70;;;0.60;;
12232;SDS011;6179;51.748;8.728;2022-08-03T18:12:07;1.23;;;0.70;;
12232;SDS011;6179;51.748;8.728;2022-08-03T18:18:15;0.87;;;0.67;;
12232;SDS011;6179;51.748;8.728;2022-08-03T18:24:18;4.83;;;0.60;;
12232;SDS011;6179;51.748;8.728;2022-08-03T18:30:19;1.10;;;0.83;;
12232;SDS011;6179;51.748;8.728;2022-08-03T18:36:20;1.97;;;0.87;;
12232;SDS011;6179;51.748;8.728;2022-08-03T18:42:21;0.60;;;0.60;;
12232;SDS011;6179;51.748;8.728;2022-08-03T18:48:24;1.23;;;0.90;;
12232;SDS011;6179;51.748;8.728;2022-08-03T18:54:35;1.37;;;0.60;;
12232;SDS011;6179;51.748;8.728;2022-08-03T19:00:49;1.10;;;0.60;;
12232;SDS011;6179;51.748;8.728;2022-08-03T19:07:00;0.60;;;0.60;;
12232;SDS011;6179;51.748;8.728;2022-08-03T19:13:07;1.00;;;0.90;;
12232;SDS011;6179;51.748;8.728;2022-08-03T19:19:22;0.73;;;0.60;;
12232;SDS011;6179;51.748;8.728;2022-08-03T19:25:24;2.70;;;0.80;;
12232;SDS011;6179;51.748;8.728;2022-08-03T19:31:26;1.23;;;0.70;;
12232;SDS011;6179;51.748;8.728;2022-08-03T19:37:28;1.13;;;0.67;;
12232;SDS011;6179;51.748;8.728;2022-08-03T19:43:34;1.33;;;1.10;;
12232;SDS011;6179;51.748;8.728;2022-08-03T19:49:37;2.43;;;0.60;;
12232;SDS011;6179;51.748;8.728;2022-08-03T19:55:42;1.27;;;0.57;;
12232;SDS011;6179;51.748;8.728;2022-08-03T20:01:42;0.80;;;0.70;;
12232;SDS011;6179;51.748;8.728;2022-08-03T20:07:43;1.30;;;0.83;;
12232;SDS011;6179;51.748;8.728;2022-08-03T20:13:46;1.50;;;1.27;;
12232;SDS011;6179;51.748;8.728;2022-08-03T20:19:50;2.30;;;1.60;;
12232;SDS011;6179;51.748;8.728;2022-08-03T20:25:54;4.00;;;2.03;;
12232;SDS011;6179;51.748;8.728;2022-08-03T20:31:56;1.40;;;1.13;;
12232;SDS011;6179;51.748;8.728;2022-08-03T20:37:57;1.03;;;0.90;;
12232;SDS011;6179;51.748;8.728;2022-08-03T20:43:58;1.67;;;1.03;;
12232;SDS011;6179;51.748;8.728;2022-08-03T20:50:01;1.70;;;1.27;;
12232;SDS011;6179;51.748;8.728;2022-08-03T20:56:03;1.00;;;1.00;;
12232;SDS011;6179;51.748;8.728;2022-08-03T21:02:04;2.97;;;1.10;;
12232;SDS011;6179;51.748;8.728;2022-08-03T21:08:05;1.00;;;0.90;;
12232;SDS011;6179;51.748;8.728;2022-08-03T21:14:07;4.40;;;1.30;;
12232;SDS011;6179;51.748;8.728;2022-08-03T21:20:14;3.60;;;1.20;;
12232;SDS011;6179;51.748;8.728;2022-08-03T21:26:17;2.87;;;2.10;;
12232;SDS011;6179;51.748;8.728;2022-08-03T21:32:18;1.20;;;0.90;;
12232;SDS011;6179;51.748;8.728;2022-08-03T21:38:21;2.40;;;1.30;;
12232;SDS011;6179;51.748;8.728;2022-08-03T21:44:22;1.00;;;1.00;;
12232;SDS011;6179;51.748;8.728;2022-08-03T21:50:23;1.50;;;1.33;;
12232;SDS011;6179;51.748;8.728;2022-08-03T21:56:24;3.63;;;1.17;;
12232;SDS011;6179;51.748;8.728;2022-08-03T22:02:28;2.30;;;1.87;;
12232;SDS011;6179;51.748;8.728;2022-08-03T22:08:29;6.33;;;1.20;;
12232;SDS011;6179;51.748;8.728;2022-08-03T22:14:32;7.60;;;1.70;;
12232;SDS011;6179;51.748;8.728;2022-08-03T22:20:33;3.60;;;1.13;;
12232;SDS011;6179;51.748;8.728;2022-08-03T22:26:33;3.17;;;0.93;;
12232;SDS011;6179;51.748;8.728;2022-08-03T22:32:38;3.63;;;1.00;;
12232;SDS011;6179;51.748;8.728;2022-08-03T22:38:40;1.33;;;1.00;;
12232;SDS011;6179;51.748;8.728;2022-08-03T22:44:42;4.17;;;1.10;;
12232;SDS011;6179;51.748;8.728;2022-08-03T22:50:45;3.07;;;1.30;;
12232;SDS011;6179;51.748;8.728;2022-08-03T22:56:46;5.90;;;0.90;;
12232;SDS011;6179;51.748;8.728;2022-08-03T23:02:49;4.87;;;1.63;;
12232;SDS011;6179;51.748;8.728;2022-08-03T23:08:50;1.90;;;1.00;;
12232;SDS011;6179;51.748;8.728;2022-08-03T23:14:53;2.37;;;1.23;;
12232;SDS011;6179;51.748;8.728;2022-08-03T23:20:56;10.23;;;1.13;;
12232;SDS011;6179;51.748;8.728;2022-08-03T23:27:01;2.30;;;1.50;;
12232;SDS011;6179;51.748;8.728;2022-08-03T23:33:06;2.33;;;1.00;;
12232;SDS011;6179;51.748;8.728;2022-08-03T23:39:08;2.87;;;1.30;;
12232;SDS011;6179;51.748;8.728;2022-08-03T23:45:10;0.90;;;0.80;;
12232;SDS011;6179;51.748;8.728;2022-08-03T23:51:55;2.13;;;1.00;;
